createdAt,value
2017-05-12T00:01:02.686Z,99526
2017-05-12T00:03:31.648Z,99521
2017-05-12T00:06:01.734Z,99523
2017-05-12T00:08:30.659Z,99529
2017-05-12T00:11:01.567Z,99530
2017-05-12T00:13:30.533Z,99530
2017-05-12T00:15:59.549Z,99536
2017-05-12T00:18:28.858Z,99526
2017-05-12T00:20:57.820Z,99515
2017-05-12T00:23:26.755Z,99517
2017-05-12T00:25:56.854Z,99507
2017-05-12T00:28:25.779Z,99516
2017-05-12T00:30:54.715Z,99522
2017-05-12T00:33:24.043Z,99509
2017-05-12T00:35:52.999Z,99511
2017-05-12T00:38:22.778Z,99517
2017-05-12T00:40:52.151Z,99515
2017-05-12T00:43:21.827Z,99507
2017-05-12T00:45:50.821Z,99507
2017-05-12T00:48:20.148Z,99509
2017-05-12T00:50:49.086Z,99514
2017-05-12T00:53:18.048Z,99500
2017-05-12T00:55:47.343Z,99506
2017-05-12T00:58:17.011Z,99501
2017-05-12T01:00:45.955Z,99487
2017-05-12T01:03:15.206Z,99492
2017-05-12T01:05:44.182Z,99488
2017-05-12T01:08:13.187Z,99483
2017-05-12T01:10:42.434Z,99487
2017-05-12T01:13:11.366Z,99494
2017-05-12T01:15:40.314Z,99488
2017-05-12T01:18:09.622Z,99495
2017-05-12T01:20:38.562Z,99487
2017-05-12T01:23:07.573Z,99492
2017-05-12T01:25:36.867Z,99493
2017-05-12T01:28:05.818Z,99487
2017-05-12T01:30:34.795Z,99486
2017-05-12T01:33:04.239Z,99487
2017-05-12T01:35:33.192Z,99486
2017-05-12T01:38:02.146Z,99484
2017-05-12T01:40:32.167Z,99485
2017-05-12T01:43:01.839Z,99477
2017-05-12T01:45:30.855Z,99485
2017-05-12T01:48:00.155Z,99493
2017-05-12T01:50:29.083Z,99487
2017-05-12T01:52:58.053Z,99484
2017-05-12T01:55:27.444Z,99483
2017-05-12T01:57:57.115Z,99490
2017-05-12T02:00:26.075Z,99482
2017-05-12T02:02:55.332Z,99490
2017-05-12T02:05:24.310Z,99476
2017-05-12T02:07:53.265Z,99495
2017-05-12T02:10:22.548Z,99490
2017-05-12T02:12:51.478Z,99491
2017-05-12T02:15:20.421Z,99496
2017-05-12T02:17:49.707Z,99487
2017-05-12T02:20:19.400Z,99485
2017-05-12T02:22:48.358Z,99481
2017-05-12T02:25:17.692Z,99473
2017-05-12T02:27:46.631Z,99476
2017-05-12T02:30:15.584Z,99472
2017-05-12T02:32:45.663Z,99473
2017-05-12T02:35:14.659Z,99475
2017-05-12T02:37:43.656Z,99472
2017-05-12T02:40:12.973Z,99463
2017-05-12T02:42:41.932Z,99469
2017-05-12T02:45:10.981Z,99472
2017-05-12T02:47:41.022Z,99465
2017-05-12T02:50:09.976Z,99473
2017-05-12T02:52:39.672Z,99470
2017-05-12T02:55:08.995Z,99472
2017-05-12T02:57:38.693Z,99467
2017-05-12T03:00:08.719Z,99468
2017-05-12T03:02:38.415Z,99466
2017-05-12T03:05:07.347Z,99465
2017-05-12T03:07:36.764Z,99465
2017-05-12T03:10:05.719Z,99468
2017-05-12T03:12:34.673Z,99468
2017-05-12T03:15:03.908Z,99461
2017-05-12T03:17:32.846Z,99462
2017-05-12T03:20:01.791Z,99469
2017-05-12T03:22:31.160Z,99471
2017-05-12T03:25:01.063Z,99475
2017-05-12T03:27:30.055Z,99471
2017-05-12T03:29:59.375Z,99487
2017-05-12T03:32:29.060Z,99488
2017-05-12T03:34:58.014Z,99481
2017-05-12T03:37:27.286Z,99492
2017-05-12T03:39:56.964Z,99503
2017-05-12T03:42:25.928Z,99504
2017-05-12T03:44:55.215Z,99511
2017-05-12T03:47:24.157Z,99512
2017-05-12T03:49:53.088Z,99525
2017-05-12T03:52:22.467Z,99531
2017-05-12T03:54:52.203Z,99541
2017-05-12T03:57:21.196Z,99522
2017-05-12T03:59:50.554Z,99532
2017-05-12T04:02:20.252Z,99518
2017-05-12T04:04:49.204Z,99524
2017-05-12T04:07:18.563Z,99532
2017-05-12T04:09:48.247Z,99529
2017-05-12T04:12:17.187Z,99537
2017-05-12T04:14:46.447Z,99536
2017-05-12T04:17:15.428Z,99537
2017-05-12T04:19:44.416Z,99537
2017-05-12T04:22:13.739Z,99543
2017-05-12T04:24:42.681Z,99541
2017-05-12T04:27:11.650Z,99536
2017-05-12T04:29:41.019Z,99539
2017-05-12T04:32:09.979Z,99540
2017-05-12T04:34:39.005Z,99540
2017-05-12T04:37:08.334Z,99550
2017-05-12T04:39:37.286Z,99541
2017-05-12T04:42:06.238Z,99549
2017-05-12T04:44:35.476Z,99541
2017-05-12T04:47:04.429Z,99541
2017-05-12T04:49:33.466Z,99532
2017-05-12T04:52:03.567Z,99535
2017-05-12T04:54:32.531Z,99549
2017-05-12T04:57:01.572Z,99535
2017-05-12T04:59:31.687Z,99544
2017-05-12T05:02:00.611Z,99541
2017-05-12T05:04:29.555Z,99540
2017-05-12T05:06:58.852Z,99541
2017-05-12T05:09:27.816Z,99543
2017-05-12T05:11:56.772Z,99540
2017-05-12T05:14:26.862Z,99533
2017-05-12T05:16:55.803Z,99533
2017-05-12T05:19:24.738Z,99540
2017-05-12T05:21:54.052Z,99540
2017-05-12T05:24:23.000Z,99549
2017-05-12T05:26:52.106Z,99551
2017-05-12T05:29:21.538Z,99555
2017-05-12T05:31:51.229Z,99564
2017-05-12T05:34:20.254Z,99557
2017-05-12T05:36:49.545Z,99556
2017-05-12T05:39:19.267Z,99564
2017-05-12T05:41:48.254Z,99564
2017-05-12T05:44:17.534Z,99564
2017-05-12T05:46:46.508Z,99571
2017-05-12T05:49:15.500Z,99575
2017-05-12T05:51:44.855Z,99576
2017-05-12T05:54:13.798Z,99569
2017-05-12T05:56:42.746Z,99575
2017-05-12T05:59:12.044Z,99588
2017-05-12T06:01:41.000Z,99586
2017-05-12T06:04:10.729Z,99587
2017-05-12T06:06:40.001Z,99588
2017-05-12T06:09:08.980Z,99590
2017-05-12T06:11:37.935Z,99586
2017-05-12T06:14:07.448Z,99598
2017-05-12T06:16:36.398Z,99601
2017-05-12T06:19:05.381Z,99596
2017-05-12T06:21:35.515Z,99606
2017-05-12T06:24:04.510Z,99607
2017-05-12T06:26:33.470Z,99600
2017-05-12T06:29:02.800Z,99601
2017-05-12T06:31:31.740Z,99601
2017-05-12T06:34:00.930Z,99609
2017-05-12T06:36:30.197Z,99617
2017-05-12T06:38:59.197Z,99612
2017-05-12T06:41:28.183Z,99615
2017-05-12T06:43:57.540Z,99623
2017-05-12T06:46:26.517Z,99619
2017-05-12T06:48:55.482Z,99625
2017-05-12T06:51:24.781Z,99623
2017-05-12T06:53:53.721Z,99636
2017-05-12T06:56:23.403Z,99631
2017-05-12T06:58:52.723Z,99635
2017-05-12T07:01:21.759Z,99649
2017-05-12T07:03:50.719Z,99645
2017-05-12T07:06:20.740Z,99648
2017-05-12T07:08:50.457Z,99654
2017-05-12T07:11:19.467Z,99659
2017-05-12T07:13:48.822Z,99659
2017-05-12T07:16:17.860Z,99663
2017-05-12T07:18:47.249Z,99654
2017-05-12T07:21:16.640Z,99660
2017-05-12T07:23:45.640Z,99664
2017-05-12T07:26:14.749Z,99663
2017-05-12T07:28:44.125Z,99672
2017-05-12T07:31:13.176Z,99674
2017-05-12T07:33:42.182Z,99682
2017-05-12T07:36:11.431Z,99681
2017-05-12T07:38:40.452Z,99678
2017-05-12T07:41:09.386Z,99682
2017-05-12T07:43:38.629Z,99683
2017-05-12T07:46:07.593Z,99683
2017-05-12T07:48:36.559Z,99687
2017-05-12T07:51:05.873Z,99691
2017-05-12T07:53:35.557Z,99694
2017-05-12T07:56:04.527Z,99695
2017-05-12T07:58:33.854Z,99691
2017-05-12T08:01:02.823Z,99696
2017-05-12T08:03:31.774Z,99696
2017-05-12T08:06:01.151Z,99693
2017-05-12T08:08:30.899Z,99707
2017-05-12T08:10:59.881Z,99707
2017-05-12T08:13:29.260Z,99697
2017-05-12T08:15:58.953Z,99707
2017-05-12T08:18:27.954Z,99701
2017-05-12T08:20:58.023Z,99706
2017-05-12T08:23:26.977Z,99707
2017-05-12T08:25:55.985Z,99706
2017-05-12T08:28:25.473Z,99716
2017-05-12T08:30:54.422Z,99723
2017-05-12T08:33:23.413Z,99720
2017-05-12T08:35:52.852Z,99705
2017-05-12T08:38:21.833Z,99706
2017-05-12T08:40:51.561Z,99706
2017-05-12T08:43:20.792Z,99718
2017-05-12T08:45:49.838Z,99730
2017-05-12T08:48:19.108Z,99721
2017-05-12T08:50:48.361Z,99713
2017-05-12T08:53:17.306Z,99720
2017-05-12T08:55:46.262Z,99725
2017-05-12T08:58:15.658Z,99708
2017-05-12T09:00:44.654Z,99715
2017-05-12T09:03:13.630Z,99707
2017-05-12T09:05:42.925Z,99706
2017-05-12T09:08:11.900Z,99707
2017-05-12T09:10:41.605Z,99701
2017-05-12T09:13:10.938Z,99708
2017-05-12T09:15:39.872Z,99706
2017-05-12T09:18:08.836Z,99712
2017-05-12T09:20:38.086Z,99703
2017-05-12T09:23:07.784Z,99712
2017-05-12T09:25:36.771Z,99710
2017-05-12T09:28:06.063Z,99709
2017-05-12T09:30:35.753Z,99709
2017-05-12T09:33:04.834Z,99709
2017-05-12T09:35:34.180Z,99700
2017-05-12T09:38:03.888Z,99695
2017-05-12T09:40:33.580Z,99695
2017-05-12T09:43:02.902Z,99695
2017-05-12T09:45:31.838Z,99702
2017-05-12T09:48:00.784Z,99715
2017-05-12T09:50:30.881Z,99711
2017-05-12T09:52:59.890Z,99720
2017-05-12T09:55:29.593Z,99713
2017-05-12T09:57:59.651Z,99711
2017-05-12T10:00:28.657Z,99712
2017-05-12T10:02:57.615Z,99709
2017-05-12T10:05:26.958Z,99705
2017-05-12T10:07:56.010Z,99702
2017-05-12T10:10:25.028Z,99702
2017-05-12T10:12:54.514Z,99706
2017-05-12T10:15:23.505Z,99705
2017-05-12T10:17:52.532Z,99700
2017-05-12T10:20:21.980Z,99704
2017-05-12T10:22:51.710Z,99707
2017-05-12T10:25:20.696Z,99705
2017-05-12T10:27:50.148Z,99696
2017-05-12T10:30:19.161Z,99702
2017-05-12T10:32:48.140Z,99693
2017-05-12T10:35:17.480Z,99690
2017-05-12T10:37:46.471Z,99691
2017-05-12T10:40:15.444Z,99689
2017-05-12T10:42:45.542Z,99691
2017-05-12T10:45:14.620Z,99696
2017-05-12T10:47:43.574Z,99696
2017-05-12T10:50:12.961Z,99693
2017-05-12T10:52:41.901Z,99693
2017-05-12T10:55:10.859Z,99693
2017-05-12T10:57:40.223Z,99701
2017-05-12T11:00:09.971Z,99702
2017-05-12T11:02:39.020Z,99709
2017-05-12T11:05:08.431Z,99694
2017-05-12T11:07:37.469Z,99702
2017-05-12T11:10:06.469Z,99712
2017-05-12T11:12:35.816Z,99705
2017-05-12T11:15:04.755Z,99711
2017-05-12T11:17:33.744Z,99714
2017-05-12T11:20:03.096Z,99712
2017-05-12T11:22:32.060Z,99708
2017-05-12T11:25:01.056Z,99711
2017-05-12T11:27:30.390Z,99712
2017-05-12T11:30:00.098Z,99706
2017-05-12T11:32:29.816Z,99711
2017-05-12T11:34:59.951Z,99712
2017-05-12T11:37:28.896Z,99711
2017-05-12T11:39:57.958Z,99716
2017-05-12T11:42:27.275Z,99717
2017-05-12T11:44:56.246Z,99714
2017-05-12T11:47:25.187Z,99713
2017-05-12T11:49:54.453Z,99718
2017-05-12T11:52:23.514Z,99716
2017-05-12T11:54:52.492Z,99720
2017-05-12T11:57:21.933Z,99722
2017-05-12T11:59:50.924Z,99723
2017-05-12T12:02:19.884Z,99720
2017-05-12T12:04:49.346Z,99718
2017-05-12T12:07:18.299Z,99716
2017-05-12T12:09:47.249Z,99710
2017-05-12T12:12:17.373Z,99711
2017-05-12T12:14:47.080Z,99704
2017-05-12T12:17:16.878Z,99708
2017-05-12T12:19:46.287Z,99699
2017-05-12T12:22:15.278Z,99702
2017-05-12T12:24:44.987Z,99703
2017-05-12T12:27:15.099Z,99696
2017-05-12T12:29:44.071Z,99703
2017-05-12T12:32:13.226Z,99697
2017-05-12T12:34:42.537Z,99703
2017-05-12T12:37:11.555Z,99704
2017-05-12T12:39:40.521Z,99704
2017-05-12T12:42:09.784Z,99702
2017-05-12T12:44:39.499Z,99703
2017-05-12T12:47:08.471Z,99704
2017-05-12T12:49:37.880Z,99704
2017-05-12T12:52:07.635Z,99703
2017-05-12T12:54:36.594Z,99710
2017-05-12T12:57:06.905Z,99698
2017-05-12T12:59:36.635Z,99699
2017-05-12T13:02:05.607Z,99691
2017-05-12T13:04:35.621Z,99696
2017-05-12T13:07:05.377Z,99688
2017-05-12T13:09:34.334Z,99695
2017-05-12T13:12:03.640Z,99689
2017-05-12T13:14:32.600Z,99697
2017-05-12T13:17:01.672Z,99699
2017-05-12T13:19:31.222Z,99692
2017-05-12T13:22:00.951Z,99697
2017-05-12T13:24:29.924Z,99699
2017-05-12T13:26:59.229Z,99697
2017-05-12T13:29:28.224Z,99695
2017-05-12T13:31:57.231Z,99687
2017-05-12T13:34:26.533Z,99686
2017-05-12T13:36:55.523Z,99678
2017-05-12T13:39:24.482Z,99686
2017-05-12T13:41:54.503Z,99679
2017-05-12T13:44:24.217Z,99670
2017-05-12T13:46:53.949Z,99667
2017-05-12T13:49:23.325Z,99677
2017-05-12T13:51:53.020Z,99672
2017-05-12T13:54:22.765Z,99672
2017-05-12T13:56:52.134Z,99662
2017-05-12T13:59:21.828Z,99663
2017-05-12T14:01:50.875Z,99660
2017-05-12T14:04:20.189Z,99658
2017-05-12T14:06:49.271Z,99661
2017-05-12T14:09:19.115Z,99666
2017-05-12T14:11:48.648Z,99661
2017-05-12T14:14:17.605Z,99657
2017-05-12T14:16:46.763Z,99651
2017-05-12T14:19:16.143Z,99655
2017-05-12T14:21:45.183Z,99651
2017-05-12T14:24:14.137Z,99647
2017-05-12T14:26:43.531Z,99654
2017-05-12T14:29:13.232Z,99646
2017-05-12T14:31:42.944Z,99644
2017-05-12T14:34:12.948Z,99647
2017-05-12T14:36:41.899Z,99644
2017-05-12T14:39:11.018Z,99644
2017-05-12T14:41:40.475Z,99643
2017-05-12T14:44:09.566Z,99647
2017-05-12T14:46:38.538Z,99643
2017-05-12T14:49:08.596Z,99642
2017-05-12T14:51:37.631Z,99636
2017-05-12T14:54:06.573Z,99642
2017-05-12T14:56:36.119Z,99631
2017-05-12T14:59:05.182Z,99635
2017-05-12T15:01:34.176Z,99631
2017-05-12T15:04:03.522Z,99635
2017-05-12T15:06:33.257Z,99633
2017-05-12T15:09:02.235Z,99631
2017-05-12T15:11:31.619Z,99634
2017-05-12T15:14:01.304Z,99640
2017-05-12T15:16:30.279Z,99638
2017-05-12T15:18:59.543Z,99641
2017-05-12T15:21:28.501Z,99639
2017-05-12T15:23:57.469Z,99634
2017-05-12T15:26:26.737Z,99631
2017-05-12T15:28:55.679Z,99631
2017-05-12T15:31:24.684Z,99639
2017-05-12T15:33:54.705Z,99638
2017-05-12T15:36:24.387Z,99638
2017-05-12T15:38:53.415Z,99639
2017-05-12T15:41:23.723Z,99637
2017-05-12T15:43:52.701Z,99638
2017-05-12T15:46:21.675Z,99647
2017-05-12T15:48:50.996Z,99640
2017-05-12T15:51:19.986Z,99635
2017-05-12T15:53:48.932Z,99635
2017-05-12T15:56:18.210Z,99640
2017-05-12T15:58:47.203Z,99644
2017-05-12T16:01:16.224Z,99640
2017-05-12T16:03:45.584Z,99645
2017-05-12T16:06:15.583Z,99646
2017-05-12T16:08:44.721Z,99642
2017-05-12T16:11:14.087Z,99644
2017-05-12T16:13:43.782Z,99649
2017-05-12T16:16:12.754Z,99649
2017-05-12T16:18:42.114Z,99658
2017-05-12T16:21:11.135Z,99648
2017-05-12T16:23:40.155Z,99654
2017-05-12T16:26:09.531Z,99648
2017-05-12T16:28:38.494Z,99644
2017-05-12T16:31:07.459Z,99652
2017-05-12T16:33:37.579Z,99650
2017-05-12T16:36:07.439Z,99653
2017-05-12T16:38:36.419Z,99657
2017-05-12T16:41:05.778Z,99663
2017-05-12T16:43:34.773Z,99660
2017-05-12T16:46:04.430Z,99659
2017-05-12T16:48:33.923Z,99667
2017-05-12T16:51:02.904Z,99676
2017-05-12T16:53:31.859Z,99681
2017-05-12T16:56:02.504Z,99676
2017-05-12T16:58:32.198Z,99686
2017-05-12T17:01:01.710Z,99692
2017-05-12T17:03:31.454Z,99686
2017-05-12T17:06:00.424Z,99691
2017-05-12T17:08:30.544Z,99688
2017-05-12T17:10:59.567Z,99691
2017-05-12T17:13:28.515Z,99693
2017-05-12T17:15:57.815Z,99685
2017-05-12T17:18:26.775Z,99699
2017-05-12T17:20:55.764Z,99692
2017-05-12T17:23:24.728Z,99687
2017-05-12T17:25:53.804Z,99694
2017-05-12T17:28:23.494Z,99693
2017-05-12T17:30:53.206Z,99694
2017-05-12T17:33:22.985Z,99696
2017-05-12T17:35:52.031Z,99710
2017-05-12T17:38:20.985Z,99708
2017-05-12T17:40:50.298Z,99710
2017-05-12T17:43:20.064Z,99716
2017-05-12T17:45:49.090Z,99714
2017-05-12T17:48:18.076Z,99718
2017-05-12T17:50:46.997Z,99729
2017-05-12T17:53:17.186Z,99726
2017-05-12T17:55:46.132Z,99727
2017-05-12T17:58:15.075Z,99729
2017-05-12T18:00:44.111Z,99737
2017-05-12T18:03:13.142Z,99742
2017-05-12T18:05:42.438Z,99739
2017-05-12T18:08:11.486Z,99751
2017-05-12T18:10:40.455Z,99749
2017-05-12T18:13:10.178Z,99759
2017-05-12T18:15:39.907Z,99761
2017-05-12T18:18:09.272Z,99774
2017-05-12T18:20:39.002Z,99788
2017-05-12T18:23:07.995Z,99806
2017-05-12T18:25:37.055Z,99837
2017-05-12T18:28:06.127Z,99843
2017-05-12T18:30:35.599Z,99857
2017-05-12T18:33:04.572Z,99849
2017-05-12T18:35:33.582Z,99847
2017-05-12T18:38:02.576Z,99840
2017-05-12T18:40:31.604Z,99844
2017-05-12T18:43:00.939Z,99844
2017-05-12T18:45:30.652Z,99845
2017-05-12T18:48:00.964Z,99844
2017-05-12T18:50:30.714Z,99842
2017-05-12T18:52:59.673Z,99843
2017-05-12T18:55:29.425Z,99851
2017-05-12T18:57:58.441Z,99847
2017-05-12T19:00:27.857Z,99850
2017-05-12T19:02:56.816Z,99858
2017-05-12T19:05:25.817Z,99849
2017-05-12T19:07:54.789Z,99859
2017-05-12T19:10:23.837Z,99857
2017-05-12T19:12:53.950Z,99861
2017-05-12T19:15:22.911Z,99868
2017-05-12T19:17:51.921Z,99874
2017-05-12T19:20:20.917Z,99876
2017-05-12T19:22:49.902Z,99862
2017-05-12T19:25:19.234Z,99871
2017-05-12T19:27:49.031Z,99880
2017-05-12T19:30:17.995Z,99876
2017-05-12T19:32:47.008Z,99879
2017-05-12T19:35:16.052Z,99885
2017-05-12T19:37:45.073Z,99887
2017-05-12T19:40:14.118Z,99892
2017-05-12T19:42:43.872Z,99892
2017-05-12T19:45:13.282Z,99899
2017-05-12T19:47:42.266Z,99898
2017-05-12T19:50:11.362Z,99896
2017-05-12T19:52:40.376Z,99906
2017-05-12T19:55:09.365Z,99902
2017-05-12T19:57:38.610Z,99909
2017-05-12T20:00:07.583Z,99910
2017-05-12T20:02:36.564Z,99912
2017-05-12T20:05:06.304Z,99917
2017-05-12T20:07:35.282Z,99915
2017-05-12T20:10:04.627Z,99918
2017-05-12T20:12:33.595Z,99928
2017-05-12T20:15:02.613Z,99933
2017-05-12T20:17:31.603Z,99936
2017-05-12T20:20:00.565Z,99932
2017-05-12T20:22:29.948Z,99935
2017-05-12T20:24:58.970Z,99938
2017-05-12T20:27:27.937Z,99937
2017-05-12T20:29:57.009Z,99940
2017-05-12T20:32:26.790Z,99929
2017-05-12T20:34:55.821Z,99931
2017-05-12T20:37:24.774Z,99939
2017-05-12T20:39:54.092Z,99940
2017-05-12T20:42:23.167Z,99928
2017-05-12T20:44:52.141Z,99936
2017-05-12T20:47:21.197Z,99938
2017-05-12T20:49:50.918Z,99940
2017-05-12T20:52:20.215Z,99940
2017-05-12T20:54:49.202Z,99940
2017-05-12T20:57:18.977Z,99940
2017-05-12T20:59:47.964Z,99948
2017-05-12T21:02:16.931Z,99945
2017-05-12T21:04:46.349Z,99956
2017-05-12T21:07:15.423Z,99948
2017-05-12T21:09:44.528Z,99954
2017-05-12T21:12:13.605Z,99951
2017-05-12T21:14:42.642Z,99957
2017-05-12T21:17:12.065Z,99959
2017-05-12T21:19:41.768Z,99949
2017-05-12T21:22:11.820Z,99955
2017-05-12T21:24:40.780Z,99950
2017-05-12T21:27:10.534Z,99945
2017-05-12T21:29:39.561Z,99950
2017-05-12T21:32:08.516Z,99950
2017-05-12T21:34:37.817Z,99946
2017-05-12T21:37:06.780Z,99946
2017-05-12T21:39:35.738Z,99945
2017-05-12T21:42:05.456Z,99947
2017-05-12T21:44:34.406Z,99949
2017-05-12T21:47:03.768Z,99948
2017-05-12T21:49:32.798Z,99951
2017-05-12T21:52:01.738Z,99953
2017-05-12T21:54:30.718Z,99956
2017-05-12T21:56:59.676Z,99955
2017-05-12T21:59:29.139Z,99959
2017-05-12T22:01:58.135Z,99953
2017-05-12T22:04:27.107Z,99943
2017-05-12T22:06:56.065Z,99946
2017-05-12T22:09:25.032Z,99951
2017-05-12T22:11:54.445Z,99951
2017-05-12T22:14:23.441Z,99955
2017-05-12T22:16:52.486Z,99952
2017-05-12T22:19:21.474Z,99952
2017-05-12T22:21:51.193Z,99948
2017-05-12T22:24:21.396Z,99944
2017-05-12T22:26:50.322Z,99937
2017-05-12T22:29:19.302Z,99938
2017-05-12T22:31:48.311Z,99948
2017-05-12T22:34:18.164Z,99957
2017-05-12T22:36:47.617Z,99953
2017-05-12T22:39:16.773Z,99971
2017-05-12T22:41:45.761Z,99951
2017-05-12T22:44:14.726Z,99963
2017-05-12T22:46:43.680Z,99961
2017-05-12T22:49:12.661Z,99952
2017-05-12T22:51:41.800Z,99949
2017-05-12T22:54:11.147Z,99957
2017-05-12T22:56:40.915Z,99967
2017-05-12T22:59:09.866Z,99970
2017-05-12T23:01:38.834Z,99964
2017-05-12T23:04:07.789Z,99965
2017-05-12T23:06:37.083Z,99972
2017-05-12T23:09:06.057Z,99968
2017-05-12T23:11:35.017Z,99967
2017-05-12T23:14:04.719Z,99975
2017-05-12T23:16:33.951Z,99979
2017-05-12T23:19:03.312Z,99974
2017-05-12T23:21:32.270Z,99984
2017-05-12T23:24:01.219Z,99984
2017-05-12T23:26:30.174Z,99990
2017-05-12T23:28:59.177Z,99986
2017-05-12T23:31:28.432Z,99990
2017-05-12T23:33:57.409Z,99988
2017-05-12T23:36:26.355Z,99978
2017-05-12T23:38:55.311Z,99978
2017-05-12T23:41:24.264Z,99973
2017-05-12T23:43:54.458Z,99977
2017-05-12T23:46:23.400Z,99974
2017-05-12T23:48:52.358Z,99974
2017-05-12T23:51:22.100Z,99976
2017-05-12T23:53:51.048Z,99980
2017-05-12T23:56:20.342Z,99985
2017-05-12T23:58:49.291Z,99982
